sensor_id;sensor_type;location;lat;lon;timestamp;P1;durP1;ratioP1;P2;durP2;ratioP2
65825;SDS011;52586;-43.152;172.732;2022-10-16T00:00:50;5.57;;;1.20;;
65825;SDS011;52586;-43.152;172.732;2022-10-16T00:03:23;3.38;;;1.10;;
65825;SDS011;52586;-43.152;172.732;2022-10-16T00:05:54;2.28;;;1.30;;
65825;SDS011;52586;-43.152;172.732;2022-10-16T00:08:29;2.30;;;1.33;;
65825;SDS011;52586;-43.152;172.732;2022-10-16T00:11:01;2.72;;;1.10;;
65825;SDS011;52586;-43.152;172.732;2022-10-16T00:13:33;2.45;;;1.17;;
65825;SDS011;52586;-43.152;172.732;2022-10-16T00:16:07;2.65;;;1.02;;
65825;SDS011;52586;-43.152;172.732;2022-10-16T00:18:40;2.65;;;1.00;;
65825;SDS011;52586;-43.152;172.732;2022-10-16T00:21:11;4.07;;;1.25;;
65825;SDS011;52586;-43.152;172.732;2022-10-16T00:23:43;3.40;;;1.27;;
65825;SDS011;52586;-43.152;172.732;2022-10-16T00:26:14;2.53;;;1.30;;
65825;SDS011;52586;-43.152;172.732;2022-10-16T00:28:45;4.25;;;1.60;;
65825;SDS011;52586;-43.152;172.732;2022-10-16T00:31:17;5.00;;;1.15;;
65825;SDS011;52586;-43.152;172.732;2022-10-16T00:33:51;2.42;;;1.10;;
65825;SDS011;52586;-43.152;172.732;2022-10-16T00:36:22;3.83;;;1.35;;
65825;SDS011;52586;-43.152;172.732;2022-10-16T00:38:54;1.90;;;1.00;;
65825;SDS011;52586;-43.152;172.732;2022-10-16T00:41:27;3.90;;;1.30;;
65825;SDS011;52586;-43.152;172.732;2022-10-16T00:43:58;4.03;;;1.13;;
65825;SDS011;52586;-43.152;172.732;2022-10-16T00:46:31;4.85;;;1.10;;
65825;SDS011;52586;-43.152;172.732;2022-10-16T00:49:09;3.28;;;1.17;;
65825;SDS011;52586;-43.152;172.732;2022-10-16T00:51:41;3.40;;;1.33;;
65825;SDS011;52586;-43.152;172.732;2022-10-16T00:54:14;4.88;;;1.67;;
65825;SDS011;52586;-43.152;172.732;2022-10-16T00:56:46;3.00;;;1.20;;
65825;SDS011;52586;-43.152;172.732;2022-10-16T00:59:18;1.80;;;1.20;;
65825;SDS011;52586;-43.152;172.732;2022-10-16T01:01:51;3.40;;;1.17;;
65825;SDS011;52586;-43.152;172.732;2022-10-16T01:04:25;3.92;;;1.25;;
65825;SDS011;52586;-43.152;172.732;2022-10-16T01:07:02;5.55;;;1.52;;
65825;SDS011;52586;-43.152;172.732;2022-10-16T01:09:42;3.70;;;1.10;;
65825;SDS011;52586;-43.152;172.732;2022-10-16T01:12:22;2.05;;;1.17;;
65825;SDS011;52586;-43.152;172.732;2022-10-16T01:15:02;4.47;;;1.63;;
65825;SDS011;52586;-43.152;172.732;2022-10-16T01:17:40;2.95;;;1.50;;
65825;SDS011;52586;-43.152;172.732;2022-10-16T01:20:17;1.98;;;1.27;;
65825;SDS011;52586;-43.152;172.732;2022-10-16T01:25:54;6.13;;;1.15;;
65825;SDS011;52586;-43.152;172.732;2022-10-16T01:28:39;6.80;;;1.85;;
65825;SDS011;52586;-43.152;172.732;2022-10-16T01:31:15;4.50;;;1.30;;
65825;SDS011;52586;-43.152;172.732;2022-10-16T01:33:51;5.28;;;1.65;;
65825;SDS011;52586;-43.152;172.732;2022-10-16T01:36:28;3.55;;;1.38;;
65825;SDS011;52586;-43.152;172.732;2022-10-16T01:39:04;3.90;;;1.23;;
65825;SDS011;52586;-43.152;172.732;2022-10-16T01:41:39;3.47;;;1.25;;
65825;SDS011;52586;-43.152;172.732;2022-10-16T01:44:16;3.92;;;1.50;;
65825;SDS011;52586;-43.152;172.732;2022-10-16T01:46:50;3.85;;;1.60;;
65825;SDS011;52586;-43.152;172.732;2022-10-16T01:49:23;3.70;;;1.33;;
65825;SDS011;52586;-43.152;172.732;2022-10-16T01:51:56;4.28;;;1.30;;
65825;SDS011;52586;-43.152;172.732;2022-10-16T01:54:31;5.72;;;1.70;;
65825;SDS011;52586;-43.152;172.732;2022-10-16T01:57:03;3.80;;;1.67;;
65825;SDS011;52586;-43.152;172.732;2022-10-16T01:59:38;2.45;;;1.17;;
65825;SDS011;52586;-43.152;172.732;2022-10-16T02:02:12;4.45;;;1.70;;
65825;SDS011;52586;-43.152;172.732;2022-10-16T02:04:44;2.28;;;1.30;;
65825;SDS011;52586;-43.152;172.732;2022-10-16T02:07:17;2.55;;;1.30;;
65825;SDS011;52586;-43.152;172.732;2022-10-16T02:09:48;4.30;;;1.80;;
65825;SDS011;52586;-43.152;172.732;2022-10-16T02:12:21;2.38;;;1.20;;
65825;SDS011;52586;-43.152;172.732;2022-10-16T02:14:58;2.78;;;1.42;;
65825;SDS011;52586;-43.152;172.732;2022-10-16T02:17:29;4.15;;;1.65;;
65825;SDS011;52586;-43.152;172.732;2022-10-16T02:19:59;5.75;;;1.80;;
65825;SDS011;52586;-43.152;172.732;2022-10-16T02:22:32;3.88;;;1.70;;
65825;SDS011;52586;-43.152;172.732;2022-10-16T02:25:06;3.42;;;1.60;;
65825;SDS011;52586;-43.152;172.732;2022-10-16T02:27:40;4.13;;;1.55;;
65825;SDS011;52586;-43.152;172.732;2022-10-16T02:30:17;4.03;;;1.58;;
65825;SDS011;52586;-43.152;172.732;2022-10-16T02:32:53;3.67;;;1.48;;
65825;SDS011;52586;-43.152;172.732;2022-10-16T02:35:24;3.08;;;1.58;;
65825;SDS011;52586;-43.152;172.732;2022-10-16T02:37:56;5.40;;;1.38;;
65825;SDS011;52586;-43.152;172.732;2022-10-16T02:40:27;4.15;;;1.30;;
65825;SDS011;52586;-43.152;172.732;2022-10-16T02:42:58;3.42;;;1.17;;
65825;SDS011;52586;-43.152;172.732;2022-10-16T02:45:34;3.65;;;1.45;;
65825;SDS011;52586;-43.152;172.732;2022-10-16T02:48:05;3.10;;;1.20;;
65825;SDS011;52586;-43.152;172.732;2022-10-16T02:50:35;4.70;;;1.70;;
65825;SDS011;52586;-43.152;172.732;2022-10-16T02:53:06;4.30;;;1.40;;
65825;SDS011;52586;-43.152;172.732;2022-10-16T02:55:37;2.40;;;1.27;;
65825;SDS011;52586;-43.152;172.732;2022-10-16T02:58:08;3.08;;;1.30;;
65825;SDS011;52586;-43.152;172.732;2022-10-16T03:00:40;4.07;;;1.55;;
65825;SDS011;52586;-43.152;172.732;2022-10-16T03:03:11;4.32;;;1.55;;
65825;SDS011;52586;-43.152;172.732;2022-10-16T03:05:43;4.38;;;1.60;;
65825;SDS011;52586;-43.152;172.732;2022-10-16T03:08:13;3.53;;;1.30;;
65825;SDS011;52586;-43.152;172.732;2022-10-16T03:10:49;4.82;;;1.52;;
65825;SDS011;52586;-43.152;172.732;2022-10-16T03:13:20;5.47;;;1.45;;
65825;SDS011;52586;-43.152;172.732;2022-10-16T03:15:53;2.10;;;1.20;;
65825;SDS011;52586;-43.152;172.732;2022-10-16T03:18:23;2.78;;;1.50;;
65825;SDS011;52586;-43.152;172.732;2022-10-16T03:20:54;2.72;;;1.23;;
65825;SDS011;52586;-43.152;172.732;2022-10-16T03:23:26;4.18;;;1.58;;
65825;SDS011;52586;-43.152;172.732;2022-10-16T03:25:57;3.63;;;1.48;;
65825;SDS011;52586;-43.152;172.732;2022-10-16T03:28:28;2.80;;;1.10;;
65825;SDS011;52586;-43.152;172.732;2022-10-16T03:31:00;3.13;;;1.50;;
65825;SDS011;52586;-43.152;172.732;2022-10-16T03:33:31;4.10;;;1.40;;
65825;SDS011;52586;-43.152;172.732;2022-10-16T03:36:02;3.45;;;1.50;;
65825;SDS011;52586;-43.152;172.732;2022-10-16T03:38:33;2.25;;;1.30;;
65825;SDS011;52586;-43.152;172.732;2022-10-16T03:41:03;3.45;;;1.23;;
65825;SDS011;52586;-43.152;172.732;2022-10-16T03:43:35;2.83;;;1.08;;
65825;SDS011;52586;-43.152;172.732;2022-10-16T03:46:07;3.08;;;1.40;;
65825;SDS011;52586;-43.152;172.732;2022-10-16T03:48:38;2.72;;;1.10;;
65825;SDS011;52586;-43.152;172.732;2022-10-16T03:51:09;3.75;;;1.38;;
65825;SDS011;52586;-43.152;172.732;2022-10-16T03:53:40;2.13;;;1.33;;
65825;SDS011;52586;-43.152;172.732;2022-10-16T03:56:10;3.03;;;1.10;;
65825;SDS011;52586;-43.152;172.732;2022-10-16T03:58:41;1.80;;;1.05;;
65825;SDS011;52586;-43.152;172.732;2022-10-16T04:01:14;2.15;;;1.10;;
65825;SDS011;52586;-43.152;172.732;2022-10-16T04:03:44;2.42;;;1.40;;
65825;SDS011;52586;-43.152;172.732;2022-10-16T04:06:15;2.80;;;1.40;;
65825;SDS011;52586;-43.152;172.732;2022-10-16T04:08:46;3.47;;;0.95;;
65825;SDS011;52586;-43.152;172.732;2022-10-16T04:11:16;1.70;;;1.00;;
65825;SDS011;52586;-43.152;172.732;2022-10-16T04:13:47;2.60;;;1.30;;
65825;SDS011;52586;-43.152;172.732;2022-10-16T04:16:20;3.38;;;1.40;;
65825;SDS011;52586;-43.152;172.732;2022-10-16T04:18:51;3.22;;;1.25;;
65825;SDS011;52586;-43.152;172.732;2022-10-16T04:21:21;2.20;;;1.30;;
65825;SDS011;52586;-43.152;172.732;2022-10-16T04:23:52;1.98;;;1.20;;
65825;SDS011;52586;-43.152;172.732;2022-10-16T04:26:23;3.58;;;1.20;;
65825;SDS011;52586;-43.152;172.732;2022-10-16T04:28:53;3.13;;;1.30;;
65825;SDS011;52586;-43.152;172.732;2022-10-16T04:31:26;2.50;;;1.40;;
65825;SDS011;52586;-43.152;172.732;2022-10-16T04:33:57;1.48;;;1.00;;
65825;SDS011;52586;-43.152;172.732;2022-10-16T04:36:28;2.00;;;1.15;;
65825;SDS011;52586;-43.152;172.732;2022-10-16T04:38:58;1.77;;;1.10;;
65825;SDS011;52586;-43.152;172.732;2022-10-16T04:41:29;2.38;;;1.10;;
65825;SDS011;52586;-43.152;172.732;2022-10-16T04:44:00;2.15;;;1.35;;
65825;SDS011;52586;-43.152;172.732;2022-10-16T04:46:33;3.58;;;1.30;;
65825;SDS011;52586;-43.152;172.732;2022-10-16T04:49:03;1.88;;;1.10;;
65825;SDS011;52586;-43.152;172.732;2022-10-16T04:51:34;4.13;;;1.63;;
65825;SDS011;52586;-43.152;172.732;2022-10-16T04:54:05;2.22;;;1.10;;
65825;SDS011;52586;-43.152;172.732;2022-10-16T04:56:35;2.95;;;1.30;;
65825;SDS011;52586;-43.152;172.732;2022-10-16T04:59:12;2.80;;;1.10;;
65825;SDS011;52586;-43.152;172.732;2022-10-16T05:01:45;3.97;;;1.50;;
65825;SDS011;52586;-43.152;172.732;2022-10-16T05:04:16;4.80;;;1.63;;
65825;SDS011;52586;-43.152;172.732;2022-10-16T05:06:47;2.45;;;1.13;;
65825;SDS011;52586;-43.152;172.732;2022-10-16T05:09:18;1.38;;;1.00;;
65825;SDS011;52586;-43.152;172.732;2022-10-16T05:11:49;1.60;;;1.13;;
65825;SDS011;52586;-43.152;172.732;2022-10-16T05:14:19;1.88;;;1.10;;
65825;SDS011;52586;-43.152;172.732;2022-10-16T05:16:52;2.10;;;1.10;;
65825;SDS011;52586;-43.152;172.732;2022-10-16T05:19:23;2.50;;;1.25;;
65825;SDS011;52586;-43.152;172.732;2022-10-16T05:21:53;2.08;;;1.33;;
65825;SDS011;52586;-43.152;172.732;2022-10-16T05:24:24;2.85;;;1.20;;
65825;SDS011;52586;-43.152;172.732;2022-10-16T05:26:55;4.40;;;1.45;;
65825;SDS011;52586;-43.152;172.732;2022-10-16T05:29:26;3.65;;;1.17;;
65825;SDS011;52586;-43.152;172.732;2022-10-16T05:31:58;4.80;;;1.50;;
65825;SDS011;52586;-43.152;172.732;2022-10-16T05:34:29;2.72;;;1.70;;
65825;SDS011;52586;-43.152;172.732;2022-10-16T05:37:00;2.70;;;1.50;;
65825;SDS011;52586;-43.152;172.732;2022-10-16T05:39:30;3.30;;;1.67;;
65825;SDS011;52586;-43.152;172.732;2022-10-16T05:42:03;2.83;;;1.27;;
65825;SDS011;52586;-43.152;172.732;2022-10-16T05:44:34;1.77;;;0.88;;
65825;SDS011;52586;-43.152;172.732;2022-10-16T05:47:06;3.13;;;1.40;;
65825;SDS011;52586;-43.152;172.732;2022-10-16T05:49:37;3.40;;;1.30;;
65825;SDS011;52586;-43.152;172.732;2022-10-16T05:52:08;4.13;;;1.60;;
65825;SDS011;52586;-43.152;172.732;2022-10-16T05:54:38;3.67;;;1.52;;
65825;SDS011;52586;-43.152;172.732;2022-10-16T05:57:09;2.63;;;1.52;;
65825;SDS011;52586;-43.152;172.732;2022-10-16T05:59:40;3.13;;;1.48;;
65825;SDS011;52586;-43.152;172.732;2022-10-16T06:02:13;3.50;;;1.50;;
65825;SDS011;52586;-43.152;172.732;2022-10-16T06:04:44;2.92;;;1.63;;
65825;SDS011;52586;-43.152;172.732;2022-10-16T06:07:15;3.47;;;1.50;;
65825;SDS011;52586;-43.152;172.732;2022-10-16T06:09:48;3.63;;;1.80;;
65825;SDS011;52586;-43.152;172.732;2022-10-16T06:12:19;3.28;;;1.73;;
65825;SDS011;52586;-43.152;172.732;2022-10-16T06:14:49;4.05;;;1.40;;
65825;SDS011;52586;-43.152;172.732;2022-10-16T06:17:22;3.22;;;1.60;;
65825;SDS011;52586;-43.152;172.732;2022-10-16T06:19:53;2.58;;;1.50;;
65825;SDS011;52586;-43.152;172.732;2022-10-16T06:22:23;3.83;;;1.50;;
65825;SDS011;52586;-43.152;172.732;2022-10-16T06:24:54;3.65;;;1.50;;
65825;SDS011;52586;-43.152;172.732;2022-10-16T06:27:25;2.75;;;1.88;;
65825;SDS011;52586;-43.152;172.732;2022-10-16T06:29:55;2.28;;;1.40;;
65825;SDS011;52586;-43.152;172.732;2022-10-16T06:32:29;2.30;;;1.40;;
65825;SDS011;52586;-43.152;172.732;2022-10-16T06:35:00;1.88;;;1.50;;
65825;SDS011;52586;-43.152;172.732;2022-10-16T06:37:30;2.75;;;1.35;;
65825;SDS011;52586;-43.152;172.732;2022-10-16T06:40:01;2.22;;;1.55;;
65825;SDS011;52586;-43.152;172.732;2022-10-16T06:42:32;3.22;;;1.52;;
65825;SDS011;52586;-43.152;172.732;2022-10-16T06:45:03;2.88;;;1.42;;
65825;SDS011;52586;-43.152;172.732;2022-10-16T06:47:36;1.65;;;1.08;;
65825;SDS011;52586;-43.152;172.732;2022-10-16T06:50:07;2.55;;;1.60;;
65825;SDS011;52586;-43.152;172.732;2022-10-16T06:52:38;2.85;;;1.40;;
65825;SDS011;52586;-43.152;172.732;2022-10-16T06:55:08;2.63;;;1.38;;
65825;SDS011;52586;-43.152;172.732;2022-10-16T06:57:39;1.92;;;1.30;;
65825;SDS011;52586;-43.152;172.732;2022-10-16T07:00:10;3.05;;;1.50;;
65825;SDS011;52586;-43.152;172.732;2022-10-16T07:02:43;2.83;;;1.45;;
65825;SDS011;52586;-43.152;172.732;2022-10-16T07:05:13;3.33;;;1.58;;
65825;SDS011;52586;-43.152;172.732;2022-10-16T07:07:44;2.13;;;1.38;;
65825;SDS011;52586;-43.152;172.732;2022-10-16T07:10:15;2.00;;;1.40;;
65825;SDS011;52586;-43.152;172.732;2022-10-16T07:12:46;1.80;;;1.35;;
65825;SDS011;52586;-43.152;172.732;2022-10-16T07:15:16;3.15;;;1.38;;
65825;SDS011;52586;-43.152;172.732;2022-10-16T07:17:49;2.05;;;1.30;;
65825;SDS011;52586;-43.152;172.732;2022-10-16T07:20:20;3.13;;;1.42;;
65825;SDS011;52586;-43.152;172.732;2022-10-16T07:22:50;2.13;;;1.17;;
65825;SDS011;52586;-43.152;172.732;2022-10-16T07:25:21;1.40;;;1.08;;
65825;SDS011;52586;-43.152;172.732;2022-10-16T07:27:52;2.42;;;1.33;;
65825;SDS011;52586;-43.152;172.732;2022-10-16T07:30:23;1.92;;;1.40;;
65825;SDS011;52586;-43.152;172.732;2022-10-16T07:32:55;1.95;;;1.20;;
65825;SDS011;52586;-43.152;172.732;2022-10-16T07:35:26;1.80;;;1.25;;
65825;SDS011;52586;-43.152;172.732;2022-10-16T07:37:57;2.30;;;1.50;;
65825;SDS011;52586;-43.152;172.732;2022-10-16T07:40:28;1.58;;;1.25;;
65825;SDS011;52586;-43.152;172.732;2022-10-16T07:42:58;1.80;;;1.20;;
65825;SDS011;52586;-43.152;172.732;2022-10-16T07:45:31;2.30;;;1.10;;
65825;SDS011;52586;-43.152;172.732;2022-10-16T07:48:04;2.10;;;1.40;;
65825;SDS011;52586;-43.152;172.732;2022-10-16T07:50:34;2.85;;;1.25;;
65825;SDS011;52586;-43.152;172.732;2022-10-16T07:53:05;2.25;;;1.30;;
65825;SDS011;52586;-43.152;172.732;2022-10-16T07:55:36;1.42;;;1.20;;
65825;SDS011;52586;-43.152;172.732;2022-10-16T07:58:07;1.85;;;1.30;;
65825;SDS011;52586;-43.152;172.732;2022-10-16T08:00:38;1.40;;;1.17;;
65825;SDS011;52586;-43.152;172.732;2022-10-16T08:03:10;2.88;;;1.45;;
65825;SDS011;52586;-43.152;172.732;2022-10-16T08:05:41;1.67;;;1.40;;
65825;SDS011;52586;-43.152;172.732;2022-10-16T08:08:12;2.00;;;1.30;;
65825;SDS011;52586;-43.152;172.732;2022-10-16T08:10:44;2.58;;;1.45;;
65825;SDS011;52586;-43.152;172.732;2022-10-16T08:13:15;2.35;;;1.50;;
65825;SDS011;52586;-43.152;172.732;2022-10-16T08:15:46;2.15;;;1.20;;
65825;SDS011;52586;-43.152;172.732;2022-10-16T08:18:19;2.55;;;1.60;;
65825;SDS011;52586;-43.152;172.732;2022-10-16T08:20:55;2.00;;;1.48;;
65825;SDS011;52586;-43.152;172.732;2022-10-16T08:23:26;2.53;;;1.40;;
65825;SDS011;52586;-43.152;172.732;2022-10-16T08:26:02;2.70;;;1.40;;
65825;SDS011;52586;-43.152;172.732;2022-10-16T08:28:34;8.60;;;4.97;;
65825;SDS011;52586;-43.152;172.732;2022-10-16T08:31:05;5.35;;;4.63;;
65825;SDS011;52586;-43.152;172.732;2022-10-16T08:33:41;4.22;;;3.40;;
65825;SDS011;52586;-43.152;172.732;2022-10-16T08:36:14;4.28;;;3.58;;
65825;SDS011;52586;-43.152;172.732;2022-10-16T08:38:47;4.97;;;3.53;;
65825;SDS011;52586;-43.152;172.732;2022-10-16T08:41:29;4.82;;;3.15;;
65825;SDS011;52586;-43.152;172.732;2022-10-16T08:44:29;4.75;;;3.28;;
65825;SDS011;52586;-43.152;172.732;2022-10-16T08:47:21;3.90;;;3.05;;
65825;SDS011;52586;-43.152;172.732;2022-10-16T08:49:58;5.10;;;3.30;;
65825;SDS011;52586;-43.152;172.732;2022-10-16T08:52:34;4.22;;;3.25;;
65825;SDS011;52586;-43.152;172.732;2022-10-16T08:55:09;4.07;;;2.90;;
65825;SDS011;52586;-43.152;172.732;2022-10-16T08:57:55;3.20;;;2.90;;
65825;SDS011;52586;-43.152;172.732;2022-10-16T09:00:26;3.20;;;2.67;;
65825;SDS011;52586;-43.152;172.732;2022-10-16T09:03:01;3.67;;;2.88;;
65825;SDS011;52586;-43.152;172.732;2022-10-16T09:05:52;4.57;;;3.08;;
65825;SDS011;52586;-43.152;172.732;2022-10-16T09:08:38;4.00;;;3.10;;
65825;SDS011;52586;-43.152;172.732;2022-10-16T09:11:21;3.40;;;3.10;;
65825;SDS011;52586;-43.152;172.732;2022-10-16T09:14:00;3.13;;;2.83;;
65825;SDS011;52586;-43.152;172.732;2022-10-16T09:16:42;3.55;;;2.90;;
65825;SDS011;52586;-43.152;172.732;2022-10-16T09:19:19;4.78;;;3.08;;
65825;SDS011;52586;-43.152;172.732;2022-10-16T09:21:57;3.83;;;2.70;;
65825;SDS011;52586;-43.152;172.732;2022-10-16T09:24:31;3.13;;;2.70;;
65825;SDS011;52586;-43.152;172.732;2022-10-16T09:27:02;3.60;;;2.90;;
65825;SDS011;52586;-43.152;172.732;2022-10-16T09:29:33;3.58;;;3.08;;
65825;SDS011;52586;-43.152;172.732;2022-10-16T09:32:08;3.15;;;2.80;;
65825;SDS011;52586;-43.152;172.732;2022-10-16T09:34:42;4.78;;;3.25;;
65825;SDS011;52586;-43.152;172.732;2022-10-16T09:37:18;3.92;;;3.00;;
65825;SDS011;52586;-43.152;172.732;2022-10-16T09:39:51;3.80;;;3.40;;
65825;SDS011;52586;-43.152;172.732;2022-10-16T09:42:23;3.75;;;3.00;;
65825;SDS011;52586;-43.152;172.732;2022-10-16T09:44:56;3.00;;;2.50;;
65825;SDS011;52586;-43.152;172.732;2022-10-16T09:47:27;3.25;;;2.78;;
65825;SDS011;52586;-43.152;172.732;2022-10-16T09:50:01;3.03;;;2.60;;
65825;SDS011;52586;-43.152;172.732;2022-10-16T09:52:36;3.03;;;2.72;;
65825;SDS011;52586;-43.152;172.732;2022-10-16T09:55:12;3.65;;;2.58;;
65825;SDS011;52586;-43.152;172.732;2022-10-16T09:57:50;4.20;;;2.92;;
65825;SDS011;52586;-43.152;172.732;2022-10-16T10:00:22;3.47;;;2.90;;
65825;SDS011;52586;-43.152;172.732;2022-10-16T10:02:54;3.80;;;2.95;;
65825;SDS011;52586;-43.152;172.732;2022-10-16T10:05:25;2.60;;;2.40;;
65825;SDS011;52586;-43.152;172.732;2022-10-16T10:07:59;3.33;;;2.33;;
65825;SDS011;52586;-43.152;172.732;2022-10-16T10:10:33;3.03;;;2.70;;
65825;SDS011;52586;-43.152;172.732;2022-10-16T10:13:15;3.05;;;2.67;;
65825;SDS011;52586;-43.152;172.732;2022-10-16T10:15:48;3.95;;;2.50;;
65825;SDS011;52586;-43.152;172.732;2022-10-16T10:18:19;3.33;;;2.60;;
65825;SDS011;52586;-43.152;172.732;2022-10-16T10:20:58;3.03;;;2.70;;
65825;SDS011;52586;-43.152;172.732;2022-10-16T10:23:33;3.55;;;2.53;;
65825;SDS011;52586;-43.152;172.732;2022-10-16T10:26:05;3.97;;;2.75;;
65825;SDS011;52586;-43.152;172.732;2022-10-16T10:28:45;3.65;;;2.90;;
65825;SDS011;52586;-43.152;172.732;2022-10-16T10:31:24;2.90;;;2.60;;
65825;SDS011;52586;-43.152;172.732;2022-10-16T10:34:00;3.30;;;2.45;;
65825;SDS011;52586;-43.152;172.732;2022-10-16T10:36:41;3.42;;;2.50;;
65825;SDS011;52586;-43.152;172.732;2022-10-16T10:39:23;4.03;;;2.65;;
65825;SDS011;52586;-43.152;172.732;2022-10-16T10:42:02;2.40;;;2.20;;
65825;SDS011;52586;-43.152;172.732;2022-10-16T10:47:42;2.97;;;2.30;;
65825;SDS011;52586;-43.152;172.732;2022-10-16T10:50:20;2.92;;;2.47;;
65825;SDS011;52586;-43.152;172.732;2022-10-16T10:52:59;2.53;;;2.13;;
65825;SDS011;52586;-43.152;172.732;2022-10-16T10:55:43;3.58;;;2.47;;
65825;SDS011;52586;-43.152;172.732;2022-10-16T10:58:27;2.30;;;2.10;;
65825;SDS011;52586;-43.152;172.732;2022-10-16T11:01:18;3.53;;;2.20;;
65825;SDS011;52586;-43.152;172.732;2022-10-16T11:04:00;2.30;;;2.08;;
65825;SDS011;52586;-43.152;172.732;2022-10-16T11:06:54;3.00;;;2.35;;
65825;SDS011;52586;-43.152;172.732;2022-10-16T11:09:28;2.40;;;2.20;;
65825;SDS011;52586;-43.152;172.732;2022-10-16T11:12:05;3.20;;;2.35;;
65825;SDS011;52586;-43.152;172.732;2022-10-16T11:14:41;2.58;;;2.20;;
65825;SDS011;52586;-43.152;172.732;2022-10-16T11:17:15;2.65;;;2.22;;
65825;SDS011;52586;-43.152;172.732;2022-10-16T11:19:52;3.03;;;2.30;;
65825;SDS011;52586;-43.152;172.732;2022-10-16T11:22:27;3.53;;;2.30;;
65825;SDS011;52586;-43.152;172.732;2022-10-16T11:25:02;2.65;;;2.30;;
65825;SDS011;52586;-43.152;172.732;2022-10-16T11:27:44;2.08;;;1.88;;
65825;SDS011;52586;-43.152;172.732;2022-10-16T11:30:20;2.83;;;2.20;;
65825;SDS011;52586;-43.152;172.732;2022-10-16T11:32:56;3.15;;;2.17;;
65825;SDS011;52586;-43.152;172.732;2022-10-16T11:35:38;2.28;;;2.00;;
65825;SDS011;52586;-43.152;172.732;2022-10-16T11:38:14;3.38;;;1.90;;
65825;SDS011;52586;-43.152;172.732;2022-10-16T11:40:50;2.72;;;2.10;;
65825;SDS011;52586;-43.152;172.732;2022-10-16T11:43:27;2.40;;;2.20;;
65825;SDS011;52586;-43.152;172.732;2022-10-16T11:46:02;2.00;;;1.80;;
65825;SDS011;52586;-43.152;172.732;2022-10-16T11:48:39;2.88;;;2.38;;
65825;SDS011;52586;-43.152;172.732;2022-10-16T11:51:15;2.78;;;2.10;;
65825;SDS011;52586;-43.152;172.732;2022-10-16T11:53:53;3.10;;;2.10;;
65825;SDS011;52586;-43.152;172.732;2022-10-16T11:56:30;1.95;;;1.70;;
65825;SDS011;52586;-43.152;172.732;2022-10-16T11:59:07;3.05;;;2.20;;
65825;SDS011;52586;-43.152;172.732;2022-10-16T12:01:46;2.33;;;2.03;;
65825;SDS011;52586;-43.152;172.732;2022-10-16T12:04:22;2.33;;;2.13;;
65825;SDS011;52586;-43.152;172.732;2022-10-16T12:06:59;2.38;;;2.17;;
65825;SDS011;52586;-43.152;172.732;2022-10-16T12:09:36;3.38;;;2.40;;
65825;SDS011;52586;-43.152;172.732;2022-10-16T12:15:03;2.83;;;1.80;;
65825;SDS011;52586;-43.152;172.732;2022-10-16T12:17:47;2.78;;;2.20;;
65825;SDS011;52586;-43.152;172.732;2022-10-16T12:20:22;4.05;;;2.30;;
65825;SDS011;52586;-43.152;172.732;2022-10-16T12:22:57;2.70;;;1.90;;
65825;SDS011;52586;-43.152;172.732;2022-10-16T12:25:29;2.72;;;2.03;;
65825;SDS011;52586;-43.152;172.732;2022-10-16T12:28:03;2.63;;;2.10;;
65825;SDS011;52586;-43.152;172.732;2022-10-16T12:30:36;3.83;;;2.30;;
65825;SDS011;52586;-43.152;172.732;2022-10-16T12:33:18;2.90;;;2.13;;
65825;SDS011;52586;-43.152;172.732;2022-10-16T12:35:51;1.85;;;1.75;;
65825;SDS011;52586;-43.152;172.732;2022-10-16T12:38:24;2.55;;;2.10;;
65825;SDS011;52586;-43.152;172.732;2022-10-16T12:40:57;2.10;;;1.77;;
65825;SDS011;52586;-43.152;172.732;2022-10-16T12:43:38;3.00;;;2.08;;
65825;SDS011;52586;-43.152;172.732;2022-10-16T12:46:32;2.05;;;1.67;;
65825;SDS011;52586;-43.152;172.732;2022-10-16T12:49:14;2.92;;;2.00;;
65825;SDS011;52586;-43.152;172.732;2022-10-16T12:52:00;2.17;;;1.92;;
65825;SDS011;52586;-43.152;172.732;2022-10-16T12:54:31;2.53;;;2.10;;
65825;SDS011;52586;-43.152;172.732;2022-10-16T12:57:16;2.55;;;2.00;;
65825;SDS011;52586;-43.152;172.732;2022-10-16T13:00:03;2.03;;;1.70;;
65825;SDS011;52586;-43.152;172.732;2022-10-16T13:02:46;3.05;;;1.80;;
65825;SDS011;52586;-43.152;172.732;2022-10-16T13:05:31;2.10;;;1.90;;
65825;SDS011;52586;-43.152;172.732;2022-10-16T13:08:16;2.80;;;1.80;;
65825;SDS011;52586;-43.152;172.732;2022-10-16T13:11:08;2.75;;;1.83;;
65825;SDS011;52586;-43.152;172.732;2022-10-16T13:13:56;2.60;;;1.85;;
65825;SDS011;52586;-43.152;172.732;2022-10-16T13:16:43;2.17;;;1.95;;
65825;SDS011;52586;-43.152;172.732;2022-10-16T13:19:22;1.83;;;1.67;;
65825;SDS011;52586;-43.152;172.732;2022-10-16T13:22:01;3.28;;;2.30;;
65825;SDS011;52586;-43.152;172.732;2022-10-16T13:24:40;2.28;;;1.90;;
65825;SDS011;52586;-43.152;172.732;2022-10-16T13:27:21;2.53;;;1.80;;
65825;SDS011;52586;-43.152;172.732;2022-10-16T13:30:01;2.55;;;2.00;;
65825;SDS011;52586;-43.152;172.732;2022-10-16T13:32:39;2.55;;;1.77;;
65825;SDS011;52586;-43.152;172.732;2022-10-16T13:35:21;2.45;;;1.70;;
65825;SDS011;52586;-43.152;172.732;2022-10-16T13:38:03;2.10;;;1.88;;
65825;SDS011;52586;-43.152;172.732;2022-10-16T13:40:48;2.28;;;1.90;;
65825;SDS011;52586;-43.152;172.732;2022-10-16T13:43:21;3.17;;;1.75;;
65825;SDS011;52586;-43.152;172.732;2022-10-16T13:45:57;3.65;;;1.95;;
65825;SDS011;52586;-43.152;172.732;2022-10-16T13:48:30;3.40;;;2.00;;
65825;SDS011;52586;-43.152;172.732;2022-10-16T13:51:04;2.60;;;1.70;;
65825;SDS011;52586;-43.152;172.732;2022-10-16T13:53:40;2.58;;;1.85;;
65825;SDS011;52586;-43.152;172.732;2022-10-16T13:56:12;2.78;;;1.80;;
65825;SDS011;52586;-43.152;172.732;2022-10-16T13:58:45;3.70;;;2.28;;
65825;SDS011;52586;-43.152;172.732;2022-10-16T14:01:26;2.30;;;2.10;;
65825;SDS011;52586;-43.152;172.732;2022-10-16T14:04:04;2.10;;;1.75;;
65825;SDS011;52586;-43.152;172.732;2022-10-16T14:06:40;2.58;;;2.00;;
65825;SDS011;52586;-43.152;172.732;2022-10-16T14:09:14;2.55;;;1.67;;
65825;SDS011;52586;-43.152;172.732;2022-10-16T14:11:53;2.40;;;1.98;;
65825;SDS011;52586;-43.152;172.732;2022-10-16T14:14:27;2.08;;;1.67;;
65825;SDS011;52586;-43.152;172.732;2022-10-16T14:17:03;2.20;;;1.92;;
65825;SDS011;52586;-43.152;172.732;2022-10-16T14:19:33;2.45;;;1.80;;
65825;SDS011;52586;-43.152;172.732;2022-10-16T14:22:11;1.75;;;1.65;;
65825;SDS011;52586;-43.152;172.732;2022-10-16T14:24:53;2.55;;;1.88;;
65825;SDS011;52586;-43.152;172.732;2022-10-16T14:27:25;1.90;;;1.70;;
65825;SDS011;52586;-43.152;172.732;2022-10-16T14:32:54;1.90;;;1.70;;
65825;SDS011;52586;-43.152;172.732;2022-10-16T14:35:27;2.05;;;1.90;;
65825;SDS011;52586;-43.152;172.732;2022-10-16T14:38:01;2.10;;;1.60;;
65825;SDS011;52586;-43.152;172.732;2022-10-16T14:40:34;2.10;;;1.90;;
65825;SDS011;52586;-43.152;172.732;2022-10-16T14:43:06;1.95;;;1.60;;
65825;SDS011;52586;-43.152;172.732;2022-10-16T14:45:50;2.45;;;1.98;;
65825;SDS011;52586;-43.152;172.732;2022-10-16T14:48:23;1.83;;;1.60;;
65825;SDS011;52586;-43.152;172.732;2022-10-16T14:50:54;2.05;;;1.80;;
65825;SDS011;52586;-43.152;172.732;2022-10-16T14:53:27;2.65;;;2.10;;
65825;SDS011;52586;-43.152;172.732;2022-10-16T14:55:58;2.70;;;1.83;;
65825;SDS011;52586;-43.152;172.732;2022-10-16T14:58:35;2.00;;;1.77;;
65825;SDS011;52586;-43.152;172.732;2022-10-16T15:01:07;1.50;;;1.40;;